Terminal Aerodrome Forecast
Issued by NWS Jackson, MS

Home | Current Version | Previous Version | Text Only | Print | Product List | Glossary On
Versions: 1 2 3 4 5 6 7 8 9 10 11 12
000
FTUS44 KJAN 291100
TAFMEI
TAF
KMEI 291137Z 2912/3012 00000KT P6SM SCT250
     FM291430 16007KT P6SM SCT040 SCT250
     FM300000 16003KT P6SM BKN250
     FM301000 00000KT 4SM BR OVC200=

USA.gov is the U.S. government's official web portal to all federal, state and local government web resources and services.